Time;durP1;ratioP1;P1;durP2;ratioP2;P2;SDS_P1;SDS_P2;PMS_P1;PMS_P2;Temp;Humidity;BMP_temperature;BMP_pressure;BME280_temperature;BME280_humidity;BME280_pressure;Samples;Min_cycle;Max_cycle;Signal;HPM_P1;HPM_P2
2021/08/23 00:01:33;;;;;;;5.47;5.00;;;;;;;16.52;86.59;101353.69;4449079;32;20076;-76
2021/08/23 00:03:58;;;;;;;5.30;5.00;;;;;;;16.82;87.54;101400.31;4447509;32;20660;-76
2021/08/23 00:06:24;;;;;;;5.68;5.30;;;;;;;16.82;86.38;101395.00;4444843;32;20133;-76
2021/08/23 00:08:50;;;;;;;4.95;4.75;;;;;;;16.95;87.21;101417.06;4432226;32;20631;-76
2021/08/23 00:11:16;;;;;;;5.45;5.25;;;;;;;16.02;86.79;101259.06;4435111;32;20081;-75
2021/08/23 00:13:41;;;;;;;5.60;5.30;;;;;;;16.34;85.96;101320.47;4450148;32;20095;-74
2021/08/23 00:16:06;;;;;;;5.30;5.00;;;;;;;16.66;87.08;101378.41;4434957;32;20483;-75
2021/08/23 00:18:32;;;;;;;5.75;5.00;;;;;;;16.72;86.79;101408.00;4441552;32;20084;-77
2021/08/23 00:21:02;;;;;;;5.10;4.90;;;;;;;16.63;87.14;101390.03;4433031;32;20175;-76
2021/08/23 00:23:28;;;;;;;5.50;5.20;;;;;;;16.46;86.58;101367.34;4442710;32;20135;-76
2021/08/23 00:25:53;;;;;;;5.10;4.90;;;;;;;16.72;86.78;101413.28;4419336;32;20075;-77
2021/08/23 00:28:19;;;;;;;5.05;4.85;;;;;;;16.70;86.67;101393.16;4432757;32;20101;-76
2021/08/23 00:30:44;;;;;;;5.35;5.15;;;;;;;16.74;87.43;101416.69;4446231;32;20568;-75
2021/08/23 00:33:10;;;;;;;5.93;5.62;;;;;;;16.73;87.63;101411.50;4430328;32;20068;-76
2021/08/23 00:35:35;;;;;;;5.28;5.05;;;;;;;16.61;86.44;101389.28;4431760;32;20068;-76
2021/08/23 00:38:01;;;;;;;5.10;4.90;;;;;;;16.72;86.87;101408.00;4442861;32;20072;-78
2021/08/23 00:40:26;;;;;;;5.68;5.37;;;;;;;16.75;87.36;101414.88;4431498;32;20589;-77
2021/08/23 00:42:52;;;;;;;5.18;4.97;;;;;;;16.79;86.55;101407.59;4432404;32;20072;-76
2021/08/23 00:45:19;;;;;;;5.10;4.85;;;;;;;16.63;86.49;101382.09;4423300;32;20581;-76
2021/08/23 00:47:44;;;;;;;5.12;4.93;;;;;;;16.81;86.46;101421.59;4444726;32;20278;-76
2021/08/23 00:50:10;;;;;;;5.50;5.20;;;;;;;16.81;87.39;101414.50;4431155;32;20098;-76
2021/08/23 00:52:35;;;;;;;5.15;4.85;;;;;;;16.85;86.44;101412.50;4442669;32;20064;-76
2021/08/23 00:55:01;;;;;;;5.35;5.10;;;;;;;16.80;86.23;101406.63;4434584;32;20118;-75
2021/08/23 00:57:27;;;;;;;4.90;4.70;;;;;;;16.67;86.12;101396.84;4449290;32;20085;-78
2021/08/23 00:59:52;;;;;;;5.00;4.80;;;;;;;16.66;86.37;101395.16;4432599;32;20056;-77
2021/08/23 01:02:34;;;;;;;5.60;5.30;;;;;;;16.82;86.40;101418.00;4451654;32;20301;-75
2021/08/23 01:05:13;;;;;;;4.93;4.72;;;;;;;16.63;86.47;101387.41;4432482;32;20071;-77
2021/08/23 01:08:00;;;;;;;5.15;4.90;;;;;;;16.78;86.51;101409.41;4426987;32;20056;-77
2021/08/23 01:10:28;;;;;;;4.95;4.75;;;;;;;16.88;87.00;101418.47;4423725;31;20629;-75
2021/08/23 01:12:54;;;;;;;5.05;4.85;;;;;;;16.80;85.78;101406.63;4430381;32;20194;-75
2021/08/23 01:15:20;;;;;;;5.40;5.10;;;;;;;16.43;85.45;101348.13;4443132;32;20072;-75
2021/08/23 01:17:45;;;;;;;5.00;4.80;;;;;;;16.77;86.53;101407.69;4444403;32;20090;-74
2021/08/23 01:20:11;;;;;;;5.05;4.85;;;;;;;16.58;86.51;101370.97;4441221;32;20075;-76
2021/08/23 01:22:38;;;;;;;5.10;4.87;;;;;;;16.63;85.75;101386.56;4443714;32;20070;-76
2021/08/23 01:25:04;;;;;;;5.50;5.20;;;;;;;16.87;85.76;101423.84;4438993;32;20598;-76
2021/08/23 01:27:30;;;;;;;5.60;5.22;;;;;;;16.86;85.47;101424.81;4442265;32;20372;-75
2021/08/23 01:30:03;;;;;;;5.10;4.80;;;;;;;16.85;85.72;101425.75;4447215;32;20072;-76
2021/08/23 01:32:28;;;;;;;5.70;5.40;;;;;;;16.43;86.63;101356.94;4461175;32;20485;-76
2021/08/23 01:34:54;;;;;;;5.35;5.07;;;;;;;16.85;86.67;101431.06;4432747;32;20057;-75
2021/08/23 01:37:20;;;;;;;5.60;5.30;;;;;;;16.77;86.81;101412.97;4443253;32;20647;-76
2021/08/23 01:39:45;;;;;;;5.87;5.55;;;;;;;16.88;85.77;101438.81;4447073;32;20095;-75
2021/08/23 01:42:11;;;;;;;5.00;4.80;;;;;;;16.83;86.57;101425.84;4431101;32;20256;-75
2021/08/23 01:44:36;;;;;;;5.18;4.97;;;;;;;16.81;85.60;101435.72;4444097;32;20225;-76
2021/08/23 01:47:02;;;;;;;4.90;4.70;;;;;;;16.78;86.50;101435.91;4425613;32;20082;-75
2021/08/23 01:49:27;;;;;;;5.15;4.93;;;;;;;16.72;86.52;101437.16;4438514;32;20083;-75
2021/08/23 01:51:53;;;;;;;4.80;4.60;;;;;;;16.40;86.40;101388.06;4429931;32;20134;-75
2021/08/23 01:54:18;;;;;;;5.15;4.95;;;;;;;16.67;86.80;101438.41;4442309;32;20078;-77
2021/08/23 01:56:44;;;;;;;5.10;4.90;;;;;;;16.18;86.75;101355.06;4442947;32;20066;-75
2021/08/23 01:59:09;;;;;;;5.28;4.97;;;;;;;16.63;86.98;101429.78;4443255;32;20071;-77
2021/08/23 02:01:34;;;;;;;5.68;5.37;;;;;;;16.52;86.65;101422.56;4441180;32;20455;-76
2021/08/23 02:04:00;;;;;;;6.10;5.68;;;;;;;16.58;87.75;101434.56;4440946;32;20080;-75
2021/08/23 02:06:25;;;;;;;5.22;5.03;;;;;;;16.53;86.90;101431.34;4440457;32;20823;-75
2021/08/23 02:08:51;;;;;;;5.12;4.90;;;;;;;16.48;87.84;101428.19;4443084;32;20732;-75
2021/08/23 02:11:16;;;;;;;5.05;4.85;;;;;;;16.43;87.85;101431.09;4445923;32;20068;-74
2021/08/23 02:13:41;;;;;;;5.65;4.90;;;;;;;16.34;87.02;101429.06;4443573;32;20080;-75
2021/08/23 02:16:07;;;;;;;5.03;4.82;;;;;;;16.21;87.70;101426.34;4431171;32;20063;-75
2021/08/23 02:18:32;;;;;;;5.00;4.80;;;;;;;15.88;87.21;101369.31;4444115;32;20136;-75
2021/08/23 02:20:58;;;;;;;5.70;5.40;;;;;;;16.32;87.55;101445.06;4432978;32;20691;-75
2021/08/23 02:23:23;;;;;;;5.30;5.10;;;;;;;16.33;88.04;101451.19;4448124;32;20090;-74
2021/08/23 02:25:48;;;;;;;5.18;4.97;;;;;;;16.34;88.53;101447.63;4426320;32;20068;-74
2021/08/23 02:28:14;;;;;;;5.00;4.80;;;;;;;16.22;88.27;101433.34;4446554;32;20094;-74
2021/08/23 02:30:39;;;;;;;5.00;4.80;;;;;;;16.24;88.15;101442.06;4440748;32;20079;-76
2021/08/23 02:33:05;;;;;;;5.37;5.18;;;;;;;16.33;88.36;101456.50;4441153;32;20079;-75
2021/08/23 02:35:30;;;;;;;5.00;4.80;;;;;;;16.30;88.56;101454.91;4432300;32;20075;-75
2021/08/23 02:37:55;;;;;;;5.28;4.97;;;;;;;16.12;89.07;101426.97;4428021;32;20068;-74
2021/08/23 02:40:21;;;;;;;5.85;5.45;;;;;;;15.98;88.42;101414.59;4431346;32;20262;-76
2021/08/23 02:42:46;;;;;;;5.10;4.90;;;;;;;15.50;88.97;101340.81;4449981;32;20076;-76
2021/08/23 02:45:12;;;;;;;5.20;5.00;;;;;;;16.22;89.13;101466.94;4440017;32;20120;-75
2021/08/23 02:47:37;;;;;;;4.90;4.70;;;;;;;16.05;88.25;101449.47;4416595;32;20065;-76
2021/08/23 02:50:03;;;;;;;4.93;4.72;;;;;;;15.73;88.92;101413.47;4429695;32;20095;-74
2021/08/23 02:52:29;;;;;;;5.10;4.80;;;;;;;15.40;89.48;101367.94;4447205;32;20464;-76
2021/08/23 02:54:54;;;;;;;5.07;4.87;;;;;;;15.92;89.28;101478.50;4431971;32;20448;-74
2021/08/23 02:57:20;;;;;;;5.07;4.87;;;;;;;15.74;90.06;101469.91;4435431;32;20299;-76
2021/08/23 02:59:45;;;;;;;5.00;4.80;;;;;;;15.71;90.42;101484.13;4440665;32;20663;-75
2021/08/23 03:02:10;;;;;;;4.90;4.70;;;;;;;15.36;91.29;101442.16;4423993;32;20263;-76
2021/08/23 03:04:36;;;;;;;5.30;5.00;;;;;;;15.52;91.33;101491.50;4443406;32;20854;-77
2021/08/23 03:07:01;;;;;;;5.00;4.80;;;;;;;15.10;91.77;101449.00;4430820;32;20082;-76
2021/08/23 03:09:27;;;;;;;5.62;5.32;;;;;;;14.61;92.56;101377.88;4430241;32;20126;-75
2021/08/23 03:11:52;;;;;;;5.55;5.25;;;;;;;14.41;92.23;101357.88;4431158;32;20464;-76
2021/08/23 03:14:17;;;;;;;5.00;4.80;;;;;;;14.84;93.06;101441.78;4419633;32;20082;-76
2021/08/23 03:16:43;;;;;;;4.65;4.45;;;;;;;15.15;93.41;101502.50;4441242;32;20597;-76
2021/08/23 03:19:08;;;;;;;5.03;4.82;;;;;;;15.15;93.87;101512.19;4431894;32;20064;-76
2021/08/23 03:21:33;;;;;;;5.10;4.90;;;;;;;14.92;94.11;101480.03;4445724;32;20079;-76
2021/08/23 03:23:59;;;;;;;4.90;4.70;;;;;;;15.06;93.64;101505.66;4442948;32;20084;-74
2021/08/23 03:26:27;;;;;;;4.78;4.57;;;;;;;14.99;94.92;101511.37;4426757;32;20083;-76
2021/08/23 03:28:52;;;;;;;4.93;4.72;;;;;;;14.67;94.73;101488.53;4421736;32;20145;-76
2021/08/23 03:31:18;;;;;;;5.15;4.95;;;;;;;14.61;94.38;101456.28;4441664;32;20077;-75
2021/08/23 03:33:43;;;;;;;5.00;4.80;;;;;;;14.90;95.33;101518.06;4442277;32;21308;-77
2021/08/23 03:36:09;;;;;;;5.40;5.20;;;;;;;14.89;95.58;101514.56;4438556;32;20078;-75
2021/08/23 03:38:34;;;;;;;5.10;4.90;;;;;;;14.90;95.64;101518.06;4441369;32;20060;-76
2021/08/23 03:41:00;;;;;;;5.05;4.70;;;;;;;14.73;96.20;101487.28;4462562;32;20851;-77
2021/08/23 03:43:25;;;;;;;4.93;4.72;;;;;;;14.74;95.49;101500.44;4428170;32;20582;-75
2021/08/23 03:45:50;;;;;;;5.40;5.10;;;;;;;14.31;96.11;101431.53;4437704;32;20083;-76
2021/08/23 03:48:16;;;;;;;4.85;4.65;;;;;;;14.80;96.01;101514.25;4428895;32;20072;-76
2021/08/23 03:50:41;;;;;;;5.78;5.47;;;;;;;14.79;96.79;101518.66;4441332;32;20294;-76
2021/08/23 03:53:06;;;;;;;5.30;5.00;;;;;;;13.37;96.38;101293.38;4429056;32;20064;-75
2021/08/23 03:55:32;;;;;;;4.95;4.75;;;;;;;14.83;96.72;101529.91;4439343;32;20079;-75
2021/08/23 03:57:58;;;;;;;4.70;4.50;;;;;;;14.68;96.42;101503.41;4429958;32;20518;-75
2021/08/23 04:00:23;;;;;;;4.72;4.53;;;;;;;14.17;97.36;101399.72;4442907;32;20065;-76
2021/08/23 04:02:48;;;;;;;4.87;4.68;;;;;;;14.90;96.59;101516.25;4432093;32;20252;-74
2021/08/23 04:05:14;;;;;;;4.90;4.70;;;;;;;15.11;96.75;101534.47;4437659;32;20109;-77
2021/08/23 04:07:39;;;;;;;5.45;5.15;;;;;;;14.98;97.09;101510.53;4442198;32;20076;-76
2021/08/23 04:10:05;;;;;;;5.00;4.80;;;;;;;14.98;96.45;101496.47;4438849;32;20668;-74
2021/08/23 04:12:30;;;;;;;5.22;5.00;;;;;;;15.33;97.34;101545.50;4430632;32;20087;-75
2021/08/23 04:14:56;;;;;;;5.05;4.85;;;;;;;14.72;96.08;101438.91;4444996;32;20076;-76
2021/08/23 04:17:21;;;;;;;5.20;5.00;;;;;;;15.18;96.50;101503.25;4440828;32;20131;-74
2021/08/23 04:19:46;;;;;;;4.80;4.60;;;;;;;15.40;96.39;101540.69;4447551;32;20539;-76
2021/08/23 04:22:12;;;;;;;5.30;5.00;;;;;;;15.14;95.79;101492.00;4445244;32;20072;-75
2021/08/23 04:24:40;;;;;;;5.30;5.00;;;;;;;15.45;95.92;101540.41;4443890;32;20183;-76
2021/08/23 04:27:06;;;;;;;5.20;5.00;;;;;;;15.61;95.51;101564.19;4434946;32;20632;-76
2021/08/23 04:29:31;;;;;;;4.87;4.68;;;;;;;15.27;95.48;101506.19;4438850;32;20072;-77
2021/08/23 04:31:56;;;;;;;5.53;5.25;;;;;;;15.65;94.96;101566.53;4432068;32;20096;-78
2021/08/23 04:34:22;;;;;;;4.87;4.68;;;;;;;15.51;94.98;101540.91;4447080;32;20064;-76
2021/08/23 04:36:47;;;;;;;4.70;4.50;;;;;;;14.85;95.09;101446.09;4432491;32;20068;-76
2021/08/23 04:39:12;;;;;;;4.60;4.40;;;;;;;14.80;94.58;101451.66;4444445;32;20064;-81
2021/08/23 04:41:39;;;;;;;5.15;4.95;;;;;;;15.45;95.24;101565.06;4434388;32;20616;-81
2021/08/23 04:44:04;;;;;;;5.00;4.80;;;;;;;14.99;94.52;101501.66;4443827;32;20074;-81
2021/08/23 04:46:29;;;;;;;5.00;4.80;;;;;;;15.02;94.68;101519.16;4447256;32;20079;-79
2021/08/23 04:48:55;;;;;;;5.00;4.80;;;;;;;13.05;94.96;101245.84;4436120;32;20095;-79
2021/08/23 04:51:20;;;;;;;4.97;4.78;;;;;;;14.94;95.55;101528.34;4437232;32;20087;-81
2021/08/23 04:53:45;;;;;;;4.90;4.70;;;;;;;14.15;95.40;101404.25;4443083;32;20502;-81
2021/08/23 04:56:11;;;;;;;4.80;4.55;;;;;;;15.14;95.18;101595.94;4445507;32;20080;-81
2021/08/23 04:58:36;;;;;;;5.28;4.97;;;;;;;15.06;94.66;101587.59;4455219;32;20077;-81
2021/08/23 05:01:02;;;;;;;5.32;5.03;;;;;;;14.91;94.95;101562.91;4442756;32;20066;-82
2021/08/23 05:03:27;;;;;;;5.40;5.10;;;;;;;14.69;94.92;101520.12;4457124;32;20128;-83
2021/08/23 05:05:53;;;;;;;5.00;4.80;;;;;;;14.95;95.34;101553.00;4459398;32;20032;-83
2021/08/23 05:08:19;;;;;;;5.25;4.95;;;;;;;15.23;94.89;101596.37;4426653;32;20074;-80
2021/08/23 05:10:44;;;;;;;4.78;4.57;;;;;;;14.71;94.71;101510.31;4461035;32;20129;-81
2021/08/23 05:13:09;;;;;;;5.45;5.18;;;;;;;15.28;95.01;101567.88;4447017;32;20083;-80
2021/08/23 05:15:38;;;;;;;5.00;4.80;;;;;;;15.26;94.09;101556.53;4455194;32;20361;-82
2021/08/23 05:18:03;;;;;;;5.47;5.15;;;;;;;15.41;94.41;101570.62;4445872;32;20182;-80
2021/08/23 05:20:28;;;;;;;5.90;5.60;;;;;;;15.34;94.10;101559.59;4451614;32;20095;-76
2021/08/23 05:22:54;;;;;;;4.90;4.70;;;;;;;14.69;93.49;101448.78;4444862;32;20080;-81
2021/08/23 05:25:19;;;;;;;5.35;5.12;;;;;;;12.18;93.85;101080.19;4434416;32;20072;-79
2021/08/23 05:27:45;;;;;;;5.05;4.82;;;;;;;15.68;93.43;101589.34;4438870;32;20102;-82
2021/08/23 05:30:10;;;;;;;5.60;5.32;;;;;;;15.82;93.62;101613.22;4446127;32;20068;-79
2021/08/23 05:32:36;;;;;;;5.45;5.15;;;;;;;15.43;93.19;101560.81;4437787;27;20096;-80
2021/08/23 05:35:01;;;;;;;4.75;4.55;;;;;;;15.93;93.16;101612.56;4429093;32;20215;-82
2021/08/23 05:37:26;;;;;;;4.90;4.70;;;;;;;15.52;92.79;101533.84;4421850;32;20091;-81
2021/08/23 05:39:52;;;;;;;5.20;5.00;;;;;;;15.47;92.37;101518.22;4434935;32;20141;-80
2021/08/23 05:42:17;;;;;;;5.12;4.93;;;;;;;14.87;92.72;101404.59;4433862;32;20661;-81
2021/08/23 05:44:43;;;;;;;5.28;4.97;;;;;;;16.07;92.03;101590.56;4452271;32;20463;-80
2021/08/23 05:47:08;;;;;;;5.60;5.30;;;;;;;16.13;92.66;101598.12;4423053;32;20083;-80
2021/08/23 05:49:33;;;;;;;5.55;5.25;;;;;;;16.32;91.84;101619.87;4423383;32;20798;-81
2021/08/23 05:52:00;;;;;;;4.90;4.70;;;;;;;15.74;92.05;101496.38;4424777;32;20068;-82
2021/08/23 05:54:25;;;;;;;5.28;5.07;;;;;;;16.12;91.04;101572.59;4435071;32;20076;-82
2021/08/23 05:56:52;;;;;;;5.47;5.18;;;;;;;15.03;90.50;101408.00;4411031;32;20099;-81
2021/08/23 05:59:18;;;;;;;5.30;5.07;;;;;;;15.93;90.85;101557.81;4439643;32;20078;-82
2021/08/23 06:01:43;;;;;;;5.32;5.03;;;;;;;15.47;90.85;101477.69;4423643;32;20083;-81
2021/08/23 06:04:11;;;;;;;6.03;5.62;;;;;;;15.88;91.02;101551.97;4433600;32;20079;-82
2021/08/23 06:06:38;;;;;;;5.18;4.97;;;;;;;16.34;91.15;101614.50;4428042;32;20615;-82
2021/08/23 06:09:03;;;;;;;5.10;4.90;;;;;;;15.39;90.94;101448.22;4443788;32;20111;-81
2021/08/23 06:11:28;;;;;;;5.20;5.00;;;;;;;16.41;90.77;101615.81;4424597;32;20772;-82
2021/08/23 06:13:54;;;;;;;4.90;4.70;;;;;;;15.41;90.11;101500.06;4440857;32;20076;-81
2021/08/23 06:16:19;;;;;;;5.30;5.00;;;;;;;14.45;90.60;101332.16;4436006;32;20083;-80
2021/08/23 06:18:44;;;;;;;5.25;5.05;;;;;;;15.71;90.18;101513.25;4426039;32;20329;-81
2021/08/23 06:21:10;;;;;;;5.60;5.30;;;;;;;16.54;90.49;101634.47;4425223;32;20064;-79
2021/08/23 06:23:35;;;;;;;7.45;6.95;;;;;;;16.63;90.63;101640.97;4429968;32;20392;-76
2021/08/23 06:26:01;;;;;;;5.22;5.00;;;;;;;16.63;90.41;101641.81;4417390;32;20169;-78
2021/08/23 06:28:26;;;;;;;5.18;4.87;;;;;;;16.68;89.95;101646.84;4419798;32;20448;-77
2021/08/23 06:30:51;;;;;;;5.53;5.22;;;;;;;16.33;90.62;101581.84;4431586;32;20553;-80
2021/08/23 06:33:17;;;;;;;5.60;5.30;;;;;;;16.47;90.45;101604.81;4427070;32;20080;-77
2021/08/23 06:35:42;;;;;;;6.18;5.78;;;;;;;16.24;89.43;101589.53;4416919;32;20076;-77
2021/08/23 06:38:08;;;;;;;5.40;5.20;;;;;;;16.36;90.30;101607.31;4425905;32;20087;-75
2021/08/23 06:40:33;;;;;;;5.10;4.90;;;;;;;16.61;89.40;101650.81;4440145;32;20068;-77
2021/08/23 06:42:59;;;;;;;5.65;5.35;;;;;;;16.45;90.26;101613.81;4412422;32;20578;-78
2021/08/23 06:45:25;;;;;;;5.87;5.47;;;;;;;16.81;90.33;101658.41;4416521;32;20135;-77
2021/08/23 06:47:50;;;;;;;5.20;5.00;;;;;;;16.31;89.26;101553.75;4430654;32;20942;-78
2021/08/23 06:50:15;;;;;;;5.75;5.35;;;;;;;16.70;88.99;101608.69;4413938;32;20130;-78
2021/08/23 06:52:42;;;;;;;6.68;6.28;;;;;;;16.91;88.92;101643.59;4357261;32;20592;-78
2021/08/23 06:55:08;;;;;;;5.55;5.30;;;;;;;16.70;88.70;101613.16;4411017;32;20096;-80
2021/08/23 06:57:33;;;;;;;5.65;5.35;;;;;;;17.04;88.71;101662.25;4418557;32;20762;-80
2021/08/23 06:59:59;;;;;;;5.47;5.18;;;;;;;16.93;88.77;101648.81;4414759;32;20150;-80
2021/08/23 07:02:24;;;;;;;5.55;5.25;;;;;;;16.92;89.45;101623.25;4420605;32;20075;-81
2021/08/23 07:04:50;;;;;;;6.25;5.80;;;;;;;17.24;88.54;101668.06;4419831;32;20076;-78
2021/08/23 07:07:18;;;;;;;5.93;5.57;;;;;;;16.93;88.79;101601.09;4432472;32;20064;-81
2021/08/23 07:09:43;;;;;;;6.03;5.72;;;;;;;16.97;88.51;101568.13;4428282;32;20072;-80
2021/08/23 07:12:09;;;;;;;6.60;6.07;;;;;;;17.82;87.53;101677.50;4423601;32;20067;-78
2021/08/23 07:14:36;;;;;;;5.60;5.35;;;;;;;17.87;87.38;101664.78;4430638;32;20077;-80
2021/08/23 07:17:02;;;;;;;5.62;5.32;;;;;;;18.15;86.21;101686.81;4416846;32;20531;-79
2021/08/23 07:19:29;;;;;;;6.07;5.62;;;;;;;18.18;85.87;101667.16;4413965;32;20654;-76
2021/08/23 07:21:55;;;;;;;6.37;5.95;;;;;;;18.34;85.50;101689.91;4430909;32;20464;-78
2021/08/23 07:24:20;;;;;;;6.05;5.68;;;;;;;17.38;85.04;101521.22;4428067;32;20076;-76
2021/08/23 07:26:45;;;;;;;7.45;6.85;;;;;;;18.05;84.45;101600.75;4414158;32;20096;-77
2021/08/23 07:29:13;;;;;;;6.37;5.97;;;;;;;18.67;83.80;101685.84;4418988;32;20083;-78
2021/08/23 07:31:39;;;;;;;6.35;6.05;;;;;;;18.90;83.65;101681.59;4423891;32;20086;-78
2021/08/23 07:34:04;;;;;;;5.82;5.53;;;;;;;18.93;82.42;101665.41;4425857;32;20187;-80
2021/08/23 07:36:30;;;;;;;6.05;5.72;;;;;;;18.62;81.73;101610.03;4426513;32;20709;-77
2021/08/23 07:38:55;;;;;;;6.22;5.82;;;;;;;19.15;80.26;101660.34;4419438;32;20100;-80
2021/08/23 07:41:20;;;;;;;6.95;6.45;;;;;;;19.36;79.99;101663.22;4426881;32;20076;-80
2021/08/23 07:43:46;;;;;;;6.37;5.80;;;;;;;19.23;78.82;101632.19;4421182;32;20726;-80
2021/08/23 07:46:11;;;;;;;5.93;5.53;;;;;;;19.53;78.75;101670.81;4427168;32;20087;-78
2021/08/23 07:48:36;;;;;;;6.12;5.72;;;;;;;19.29;76.84;101684.97;4415446;32;20081;-79
2021/08/23 07:51:02;;;;;;;5.78;5.47;;;;;;;18.46;75.94;101567.72;4429704;32;20096;-78
2021/08/23 07:53:27;;;;;;;6.00;5.70;;;;;;;18.79;76.97;101676.19;4445463;32;20079;-79
2021/08/23 07:55:53;;;;;;;6.35;5.95;;;;;;;18.44;77.98;101641.41;4435060;32;20111;-80
2021/08/23 07:58:18;;;;;;;6.47;6.07;;;;;;;18.61;79.11;101688.09;4425803;32;20068;-77
2021/08/23 08:00:43;;;;;;;5.97;5.68;;;;;;;18.66;80.46;101686.81;4430757;32;20060;-80
2021/08/23 08:03:09;;;;;;;8.30;6.28;;;;;;;17.42;79.98;101499.69;4421692;32;20085;-77
2021/08/23 08:05:38;;;;;;;6.03;5.62;;;;;;;18.40;81.55;101651.44;4433346;32;20084;-79
2021/08/23 08:08:07;;;;;;;6.07;5.78;;;;;;;18.12;81.57;101609.97;4432015;32;20171;-77
2021/08/23 08:10:33;;;;;;;5.87;5.47;;;;;;;18.42;79.78;101638.00;4426249;32;20064;-79
2021/08/23 08:12:58;;;;;;;6.70;6.30;;;;;;;18.80;78.99;101682.34;4434924;32;20083;-80
2021/08/23 08:15:23;;;;;;;6.78;6.37;;;;;;;18.67;79.66;101683.19;4421569;32;20067;-79
2021/08/23 08:17:49;;;;;;;5.95;5.45;;;;;;;18.17;79.75;101645.06;4434429;32;20071;-80
2021/08/23 08:20:14;;;;;;;7.53;7.03;;;;;;;18.50;79.76;101686.16;4421564;32;20083;-79
2021/08/23 08:22:40;;;;;;;6.18;5.68;;;;;;;18.54;80.20;101695.63;4424046;32;20146;-79
2021/08/23 08:25:06;;;;;;;5.55;5.25;;;;;;;18.29;79.50;101662.78;4436406;32;20061;-80
2021/08/23 08:27:31;;;;;;;6.37;5.97;;;;;;;18.28;79.58;101689.47;4425334;32;20137;-79
2021/08/23 08:29:56;;;;;;;6.78;6.25;;;;;;;18.08;81.14;101694.34;4432346;32;20554;-77
2021/08/23 08:32:22;;;;;;;6.78;6.35;;;;;;;17.91;80.75;101676.06;4421729;32;20064;-77
2021/08/23 08:34:47;;;;;;;7.05;6.55;;;;;;;17.89;83.44;101708.00;4429591;32;20647;-78
2021/08/23 08:37:12;;;;;;;6.50;6.00;;;;;;;17.52;84.57;101707.78;4409026;32;20068;-78
2021/08/23 08:39:38;;;;;;;7.30;6.80;;;;;;;17.41;87.04;101725.34;4428413;32;20558;-78
2021/08/23 08:42:04;;;;;;;6.93;6.32;;;;;;;17.26;89.28;101737.78;4416456;32;20099;-80
2021/08/23 08:44:29;;;;;;;6.37;5.97;;;;;;;16.88;91.08;101690.69;4418860;32;20072;-80
2021/08/23 08:46:56;;;;;;;6.47;5.87;;;;;;;16.88;91.89;101701.31;4434603;32;20968;-74
2021/08/23 08:49:21;;;;;;;7.50;6.95;;;;;;;17.24;91.88;101755.59;4417598;32;20167;-74
2021/08/23 08:51:46;;;;;;;6.43;6.03;;;;;;;17.26;92.36;101753.69;4417842;32;20068;-73
2021/08/23 08:54:12;;;;;;;6.40;5.82;;;;;;;15.14;91.59;101442.59;4430884;32;20391;-73
2021/08/23 08:56:37;;;;;;;6.12;5.72;;;;;;;17.50;91.91;101748.63;4415137;32;20621;-73
2021/08/23 08:59:03;;;;;;;8.35;5.62;;;;;;;17.62;90.57;101754.94;4421697;32;20099;-72
2021/08/23 09:01:29;;;;;;;6.00;5.55;;;;;;;17.69;89.63;101742.97;4411888;32;20073;-74
2021/08/23 09:03:59;;;;;;;6.40;5.85;;;;;;;17.91;86.23;101737.97;4430134;32;20069;-75
2021/08/23 09:06:25;;;;;;;5.95;5.65;;;;;;;18.24;85.50;101763.25;4416914;32;20076;-75
2021/08/23 09:08:50;;;;;;;6.50;6.07;;;;;;;18.10;84.88;101736.75;4433479;32;20157;-76
2021/08/23 09:11:17;;;;;;;6.05;5.50;;;;;;;18.05;82.26;101725.59;4413223;32;20072;-79
2021/08/23 09:13:59;;;;;;;5.62;5.22;;;;;;;18.14;82.80;101744.41;4412732;32;20552;-77
2021/08/23 09:16:32;;;;;;;6.50;6.20;;;;;;;17.98;82.15;101732.25;4427140;32;20072;-76
2021/08/23 09:18:58;;;;;;;5.55;5.25;;;;;;;18.14;82.20;101770.13;4429111;32;20420;-76
2021/08/23 09:21:30;;;;;;;5.97;5.53;;;;;;;18.12;81.63;101756.97;4416486;32;20107;-77
2021/08/23 09:23:59;;;;;;;5.97;5.57;;;;;;;18.34;82.09;101774.09;4425608;32;20072;-77
2021/08/23 09:26:32;;;;;;;5.87;5.50;;;;;;;18.26;80.22;101737.44;4427225;32;20708;-76
2021/08/23 09:29:05;;;;;;;5.43;5.20;;;;;;;17.62;81.80;101643.44;4427272;32;20095;-77
2021/08/23 09:31:33;;;;;;;5.57;5.28;;;;;;;18.46;82.09;101786.56;4409288;32;20065;-78
2021/08/23 09:34:03;;;;;;;5.62;5.32;;;;;;;18.40;81.53;101770.16;4429106;32;20530;-76
2021/08/23 09:36:29;;;;;;;6.00;5.70;;;;;;;18.38;80.58;101788.91;4416482;32;20778;-73
2021/08/23 09:39:05;;;;;;;6.95;5.45;;;;;;;18.31;80.97;101792.91;4425439;32;20096;-74
2021/08/23 09:41:30;;;;;;;5.95;5.62;;;;;;;18.14;80.33;101802.00;4422677;32;20531;-73
2021/08/23 09:44:02;;;;;;;5.07;4.87;;;;;;;17.97;80.46;101757.12;4430614;32;20080;-74
2021/08/23 09:46:28;;;;;;;5.73;5.30;;;;;;;17.84;80.48;101699.53;4412869;32;20665;-74
2021/08/23 09:48:54;;;;;;;5.30;5.05;;;;;;;18.36;79.70;101789.94;4409209;32;20081;-75
2021/08/23 09:51:39;;;;;;;5.55;5.22;;;;;;;18.72;78.09;101805.16;4397926;32;20061;-75
2021/08/23 09:54:09;;;;;;;5.93;5.50;;;;;;;18.92;76.95;101803.81;4410949;32;20080;-76
2021/08/23 09:56:38;;;;;;;5.57;5.28;;;;;;;19.03;78.07;101808.41;4411341;32;20154;-76
2021/08/23 09:59:04;;;;;;;5.85;5.45;;;;;;;18.62;75.60;101709.25;4411485;32;20139;-76
2021/08/23 10:01:33;;;;;;;5.50;5.30;;;;;;;19.36;74.91;101783.00;4410800;32;20092;-76
2021/08/23 10:04:03;;;;;;;5.87;5.53;;;;;;;19.30;73.95;101810.91;4407910;32;20085;-75
2021/08/23 10:06:28;;;;;;;6.25;5.75;;;;;;;18.35;73.26;101666.84;4410352;32;20079;-75
2021/08/23 10:08:54;;;;;;;6.53;5.97;;;;;;;18.57;73.89;101654.72;4414354;32;20076;-76
2021/08/23 10:11:19;;;;;;;6.62;6.07;;;;;;;19.73;72.29;101803.34;4412461;32;20559;-75
2021/08/23 10:13:44;;;;;;;5.70;5.30;;;;;;;19.90;71.08;101786.13;4417139;32;20087;-76
2021/08/23 10:16:10;;;;;;;6.45;5.95;;;;;;;20.25;71.35;101803.13;4422053;32;20069;-76
2021/08/23 10:18:35;;;;;;;13.27;5.68;;;;;;;20.15;70.83;101807.44;4399037;32;20642;-76
2021/08/23 10:21:00;;;;;;;6.55;6.07;;;;;;;20.06;71.30;101807.13;4425359;32;20102;-77
2021/08/23 10:23:26;;;;;;;6.15;5.78;;;;;;;19.89;70.47;101799.56;4413133;32;20074;-76
2021/08/23 10:25:51;;;;;;;6.28;5.93;;;;;;;19.99;71.33;101810.41;4426104;32;20880;-77
2021/08/23 10:28:19;;;;;;;6.00;5.70;;;;;;;20.22;71.19;101809.50;4412703;32;20085;-76
2021/08/23 10:30:44;;;;;;;5.65;5.35;;;;;;;20.74;66.86;101825.19;4428555;32;20092;-77
2021/08/23 10:33:15;;;;;;;6.00;5.70;;;;;;;20.45;67.23;101790.94;4435264;32;20659;-75
2021/08/23 10:35:52;;;;;;;5.60;5.30;;;;;;;20.65;66.51;101755.59;4427633;32;20593;-76
2021/08/23 10:38:41;;;;;;;5.47;5.22;;;;;;;21.21;64.87;101802.78;4429720;32;20565;-77
2021/08/23 10:41:07;;;;;;;5.62;5.32;;;;;;;21.07;65.86;101803.88;4426119;32;20077;-76
2021/08/23 10:43:42;;;;;;;6.05;5.65;;;;;;;20.43;65.78;101767.06;4424071;32;20072;-75
2021/08/23 10:46:17;;;;;;;6.05;5.65;;;;;;;20.35;67.81;101805.91;4429333;32;20076;-75
2021/08/23 10:48:49;;;;;;;6.10;5.80;;;;;;;20.13;68.73;101810.22;4407540;32;20104;-75
2021/08/23 10:51:26;;;;;;;5.97;5.68;;;;;;;19.95;68.15;101820.44;4425136;32;20070;-76
2021/08/23 10:53:51;;;;;;;5.43;5.18;;;;;;;19.18;69.55;101711.50;4416222;32;20308;-75
2021/08/23 10:56:21;;;;;;;6.22;5.82;;;;;;;19.90;68.18;101814.59;4413542;32;20075;-76
2021/08/23 10:58:47;;;;;;;5.53;5.22;;;;;;;19.39;68.45;101729.56;4422004;32;20644;-75
2021/08/23 11:01:31;;;;;;;5.53;5.22;;;;;;;19.41;67.30;101695.69;4418886;32;20068;-75
2021/08/23 11:04:03;;;;;;;6.05;5.62;;;;;;;20.46;66.34;101814.78;4409856;32;20115;-77
2021/08/23 11:06:29;;;;;;;5.85;5.53;;;;;;;20.52;68.26;101808.16;4414124;32;20395;-73
2021/08/23 11:09:11;;;;;;;5.82;5.53;;;;;;;20.43;65.64;101800.88;4437104;32;20157;-76
2021/08/23 11:11:37;;;;;;;6.30;5.82;;;;;;;20.32;66.23;101809.66;4430551;32;20284;-76
2021/08/23 11:14:14;;;;;;;5.47;5.15;;;;;;;20.29;66.62;101821.41;4414362;32;20138;-75
2021/08/23 11:16:40;;;;;;;5.72;5.43;;;;;;;20.53;65.49;101809.87;4430020;32;20669;-75
2021/08/23 11:19:06;;;;;;;5.90;5.60;;;;;;;20.44;65.92;101827.41;4431079;32;20076;-75
2021/08/23 11:21:31;;;;;;;5.85;5.45;;;;;;;20.15;66.10;101762.97;4414849;32;20494;-74